createdAt,value
2024-03-23T00:01:45.545Z,78.05
2024-03-23T00:04:17.106Z,78.02
2024-03-23T00:06:48.254Z,78.08
2024-03-23T00:09:19.790Z,78.16
2024-03-23T00:11:53.412Z,78.05
2024-03-23T00:14:24.621Z,78.19
2024-03-23T00:16:55.741Z,78.34
2024-03-23T00:19:26.984Z,78.34
2024-03-23T00:21:58.274Z,78.30
2024-03-23T00:24:29.442Z,78.28
2024-03-23T00:27:00.613Z,78.42
2024-03-23T00:29:31.752Z,78.24
2024-03-23T00:32:03.049Z,78.46
2024-03-23T00:34:34.493Z,78.65
2024-03-23T00:37:05.698Z,78.65
2024-03-23T00:39:36.880Z,78.61
2024-03-23T00:42:07.987Z,78.60
2024-03-23T00:44:39.133Z,78.52
2024-03-23T00:47:10.335Z,78.36
2024-03-23T00:49:41.521Z,78.34
2024-03-23T00:52:12.622Z,78.43
2024-03-23T00:54:43.917Z,78.48
2024-03-23T00:57:15.242Z,78.51
2024-03-23T00:59:46.410Z,78.37
2024-03-23T01:02:17.560Z,78.30
2024-03-23T01:04:48.869Z,78.35
2024-03-23T01:07:20.019Z,78.55
2024-03-23T01:10:10.811Z,78.44
2024-03-23T01:12:42.219Z,78.52
2024-03-23T01:15:13.642Z,78.05
2024-03-23T01:17:44.762Z,78.23
2024-03-23T01:20:16.474Z,78.07
2024-03-23T01:22:49.637Z,78.17
2024-03-23T01:25:20.737Z,78.32
2024-03-23T01:27:56.482Z,78.33
2024-03-23T01:30:27.637Z,78.40
2024-03-23T01:32:58.874Z,78.45
2024-03-23T01:35:30.167Z,78.68
2024-03-23T01:38:01.584Z,78.47
2024-03-23T01:40:33.556Z,78.46
2024-03-23T01:43:09.783Z,78.29
2024-03-23T01:45:41.755Z,78.19
2024-03-23T01:48:13.524Z,78.24
2024-03-23T01:50:45.173Z,78.31
2024-03-23T01:53:18.447Z,78.39
2024-03-23T01:55:49.552Z,78.41
2024-03-23T01:58:20.716Z,78.11
2024-03-23T02:00:51.887Z,78.40
2024-03-23T02:03:28.640Z,78.35
2024-03-23T02:06:00.169Z,78.47
2024-03-23T02:08:32.729Z,78.30
2024-03-23T02:11:03.846Z,78.45
2024-03-23T02:13:35.102Z,78.31
2024-03-23T02:16:06.861Z,78.24
2024-03-23T02:18:38.806Z,78.56
2024-03-23T02:21:08.530Z,78.72
2024-03-23T02:23:39.602Z,78.97
2024-03-23T02:26:10.901Z,79.13
2024-03-23T02:28:42.291Z,79.13
2024-03-23T02:31:14.103Z,79.15
2024-03-23T02:33:46.608Z,78.87
2024-03-23T02:36:18.062Z,78.57
2024-03-23T02:38:49.467Z,78.38
2024-03-23T02:41:24.126Z,78.37
2024-03-23T02:43:55.482Z,78.29
2024-03-23T02:46:26.745Z,78.63
2024-03-23T02:48:58.363Z,78.84
2024-03-23T02:51:29.490Z,79.49
2024-03-23T02:54:00.696Z,79.96
2024-03-23T02:56:34.271Z,79.90
2024-03-23T02:59:05.604Z,79.89
2024-03-23T03:01:37.586Z,79.82
2024-03-23T03:04:09.293Z,79.85
2024-03-23T03:06:42.113Z,79.82
2024-03-23T03:09:14.492Z,79.76
2024-03-23T03:11:45.894Z,79.95
2024-03-23T03:14:17.155Z,80.25
2024-03-23T03:16:48.394Z,80.16
2024-03-23T03:19:19.646Z,81.54
2024-03-23T03:21:51.162Z,81.16
2024-03-23T03:24:22.715Z,81.15
2024-03-23T03:26:53.950Z,80.91
2024-03-23T03:29:25.569Z,80.44
2024-03-23T03:31:56.742Z,80.56
2024-03-23T03:34:27.868Z,79.95
2024-03-23T03:36:59.342Z,80.40
2024-03-23T03:39:34.312Z,79.56
2024-03-23T03:42:07.928Z,79.96
2024-03-23T03:44:40.745Z,79.84
2024-03-23T03:47:12.507Z,80.00
2024-03-23T03:49:45.659Z,79.47
2024-03-23T03:52:18.333Z,79.46
2024-03-23T03:54:50.467Z,79.87
2024-03-23T03:57:22.896Z,79.92
2024-03-23T03:59:54.546Z,79.87
2024-03-23T04:02:27.828Z,79.82
2024-03-23T04:05:02.599Z,80.51
2024-03-23T04:07:42.036Z,80.50
2024-03-23T04:10:23.829Z,81.41
2024-03-23T04:12:56.913Z,81.49
2024-03-23T04:15:30.806Z,81.02
2024-03-23T04:18:10.294Z,80.37
2024-03-23T04:20:43.292Z,80.23
2024-03-23T04:23:16.512Z,79.53
2024-03-23T04:25:48.764Z,79.85
2024-03-23T04:28:22.218Z,79.24
2024-03-23T04:30:54.977Z,79.60
2024-03-23T04:33:26.696Z,79.84
2024-03-23T04:35:57.224Z,79.88
2024-03-23T04:38:28.649Z,79.95
2024-03-23T04:41:03.190Z,79.86
2024-03-23T04:43:36.517Z,79.49
2024-03-23T04:46:12.496Z,79.27
2024-03-23T04:48:45.763Z,78.85
2024-03-23T04:51:25.129Z,78.94
2024-03-23T04:53:56.901Z,79.44
2024-03-23T04:56:28.836Z,79.66
2024-03-23T04:59:02.781Z,79.28
2024-03-23T05:01:34.512Z,79.19
2024-03-23T05:04:08.414Z,78.64
2024-03-23T05:06:40.890Z,78.80
2024-03-23T05:09:14.076Z,79.35
2024-03-23T05:11:45.739Z,78.97
2024-03-23T05:14:17.323Z,79.10
2024-03-23T05:16:48.580Z,79.10
2024-03-23T05:19:20.652Z,78.90
2024-03-23T05:21:50.636Z,78.73
2024-03-23T05:24:22.167Z,79.00
2024-03-23T05:26:53.462Z,79.07
2024-03-23T05:29:24.952Z,78.97
2024-03-23T05:31:58.013Z,78.89
2024-03-23T05:36:03.067Z,79.31
2024-03-23T05:38:34.355Z,79.13
2024-03-23T05:41:06.490Z,79.28
2024-03-23T05:43:38.040Z,79.28
2024-03-23T05:46:09.902Z,79.22
2024-03-23T05:48:41.245Z,79.12
2024-03-23T05:51:14.183Z,79.09
2024-03-23T05:53:45.315Z,79.04
2024-03-23T05:56:16.508Z,78.64
2024-03-23T05:58:47.792Z,78.19
2024-03-23T06:01:18.942Z,78.61
2024-03-23T06:03:50.028Z,78.55
2024-03-23T06:06:21.482Z,78.15
2024-03-23T06:08:53.851Z,78.18
2024-03-23T06:11:27.670Z,78.18
2024-03-23T06:13:58.838Z,78.37
2024-03-23T06:16:32.325Z,77.91
2024-03-23T06:19:05.686Z,77.99
2024-03-23T06:21:36.909Z,77.74
2024-03-23T06:24:08.738Z,77.72
2024-03-23T06:26:39.859Z,77.70
2024-03-23T06:29:11.184Z,76.95
2024-03-23T06:31:42.480Z,77.82
2024-03-23T06:34:14.012Z,77.66
2024-03-23T06:36:48.831Z,77.77
2024-03-23T06:39:20.012Z,77.91
2024-03-23T06:41:58.025Z,78.22
2024-03-23T06:44:29.134Z,78.28
2024-03-23T06:47:00.392Z,77.81
2024-03-23T06:49:31.503Z,77.06
2024-03-23T06:52:02.512Z,78.01
2024-03-23T06:54:33.644Z,78.06
2024-03-23T06:57:04.893Z,78.20
2024-03-23T06:59:35.991Z,78.03
2024-03-23T07:02:09.422Z,78.07
2024-03-23T07:04:41.148Z,78.04
2024-03-23T07:07:12.673Z,78.22
2024-03-23T07:09:44.283Z,77.53
2024-03-23T07:12:15.365Z,77.61
2024-03-23T07:14:46.757Z,77.92
2024-03-23T07:17:19.601Z,78.03
2024-03-23T07:19:50.749Z,77.60
2024-03-23T07:22:21.800Z,76.22
2024-03-23T07:24:53.368Z,76.59
2024-03-23T07:27:25.243Z,76.96
2024-03-23T07:29:56.447Z,77.36
2024-03-23T07:32:27.752Z,76.57
2024-03-23T07:34:58.846Z,76.66
2024-03-23T07:37:30.841Z,76.41
2024-03-23T07:40:01.937Z,76.54
2024-03-23T07:42:33.156Z,75.91
2024-03-23T07:45:07.955Z,76.27
2024-03-23T07:47:39.501Z,76.69
2024-03-23T07:50:11.954Z,76.79
2024-03-23T07:52:43.119Z,76.92
2024-03-23T07:55:14.304Z,76.87
2024-03-23T07:57:45.456Z,76.86
2024-03-23T08:00:17.629Z,77.08
2024-03-23T08:02:49.236Z,77.38
2024-03-23T08:05:20.857Z,77.11
2024-03-23T08:07:55.186Z,77.08
2024-03-23T08:10:26.287Z,76.92
2024-03-23T08:12:57.416Z,77.20
2024-03-23T08:15:28.567Z,76.96
2024-03-23T08:18:01.831Z,76.95
2024-03-23T08:20:34.936Z,76.70
2024-03-23T08:23:06.863Z,76.71
2024-03-23T08:25:38.196Z,76.62
2024-03-23T08:28:09.653Z,76.41
2024-03-23T08:30:40.894Z,76.84
2024-03-23T08:33:12.004Z,76.80
2024-03-23T08:35:43.307Z,76.89
2024-03-23T08:38:14.315Z,76.58
2024-03-23T08:40:45.635Z,76.72
2024-03-23T08:43:16.749Z,77.00
2024-03-23T08:45:47.865Z,77.09
2024-03-23T08:48:20.508Z,77.20
2024-03-23T08:51:02.696Z,77.15
2024-03-23T08:53:34.843Z,77.41
2024-03-23T08:56:08.020Z,77.71
2024-03-23T08:58:40.533Z,77.03
2024-03-23T09:01:12.772Z,77.54
2024-03-23T09:03:43.862Z,77.59
2024-03-23T09:06:16.794Z,76.75
2024-03-23T09:08:47.975Z,76.25
2024-03-23T09:11:19.094Z,76.99
2024-03-23T09:13:50.653Z,76.38
2024-03-23T09:16:21.744Z,76.21
2024-03-23T09:18:53.875Z,76.29
2024-03-23T09:21:23.502Z,75.51
2024-03-23T09:23:54.660Z,75.42
2024-03-23T09:26:25.718Z,75.18
2024-03-23T09:28:56.792Z,74.83
2024-03-23T09:31:28.147Z,73.79
2024-03-23T09:33:59.935Z,73.34
2024-03-23T09:36:31.033Z,72.99
2024-03-23T09:39:02.173Z,72.54
2024-03-23T09:41:34.400Z,72.10
2024-03-23T09:44:06.904Z,71.91
2024-03-23T09:46:40.255Z,71.44
2024-03-23T09:49:12.263Z,71.04
2024-03-23T09:51:42.334Z,70.66
2024-03-23T09:54:13.538Z,70.56
2024-03-23T09:56:46.548Z,68.91
2024-03-23T09:59:18.594Z,69.10
2024-03-23T10:01:51.109Z,68.18
2024-03-23T10:04:42.896Z,67.04
2024-03-23T10:07:16.307Z,67.06
2024-03-23T10:09:52.035Z,66.18
2024-03-23T10:12:25.790Z,65.94
2024-03-23T10:14:56.891Z,66.21
2024-03-23T10:17:28.222Z,66.18
2024-03-23T10:19:59.703Z,65.95
2024-03-23T10:22:30.862Z,65.68
2024-03-23T10:25:11.452Z,63.38
2024-03-23T10:27:44.534Z,62.36
2024-03-23T10:30:18.272Z,62.38
2024-03-23T10:32:51.625Z,61.51
2024-03-23T10:35:24.101Z,61.05
2024-03-23T10:37:58.107Z,60.87
2024-03-23T10:40:31.724Z,60.46
2024-03-23T10:43:04.941Z,61.65
2024-03-23T10:45:36.215Z,61.84
2024-03-23T10:48:08.656Z,62.08
2024-03-23T10:50:39.956Z,61.63
2024-03-23T10:53:13.062Z,60.61
2024-03-23T10:55:46.821Z,58.97
2024-03-23T10:58:29.587Z,58.18
2024-03-23T11:01:00.906Z,59.91
2024-03-23T11:03:37.827Z,61.64
2024-03-23T11:06:10.222Z,62.39
2024-03-23T11:08:43.627Z,62.04
2024-03-23T11:11:20.662Z,62.65
2024-03-23T11:13:53.425Z,62.35
2024-03-23T11:16:30.805Z,62.37
2024-03-23T11:19:35.154Z,62.17
2024-03-23T11:22:07.246Z,62.31
2024-03-23T11:24:39.412Z,62.17
2024-03-23T11:27:21.343Z,62.34
2024-03-23T11:29:52.696Z,61.63
2024-03-23T11:32:24.473Z,60.58
2024-03-23T11:34:57.403Z,61.57
2024-03-23T11:37:31.007Z,69.92
2024-03-23T11:40:03.232Z,71.28
2024-03-23T11:42:34.391Z,70.78
2024-03-23T11:45:13.341Z,68.05
2024-03-23T11:47:44.590Z,67.07
2024-03-23T11:50:22.944Z,66.73
2024-03-23T11:52:54.155Z,67.27
2024-03-23T11:55:25.603Z,66.78
2024-03-23T11:57:58.192Z,66.12
2024-03-23T12:00:30.766Z,67.04
2024-03-23T12:03:05.471Z,67.00
2024-03-23T12:05:37.651Z,66.82
2024-03-23T12:08:22.715Z,65.82
2024-03-23T12:11:07.061Z,66.74
2024-03-23T12:13:42.910Z,66.08
2024-03-23T12:16:16.372Z,66.49
2024-03-23T12:19:13.254Z,67.02
2024-03-23T12:21:59.087Z,66.90
2024-03-23T12:24:31.672Z,65.74
2024-03-23T12:27:08.721Z,66.15
2024-03-23T12:29:50.525Z,65.91
2024-03-23T12:32:24.458Z,64.12
2024-03-23T12:34:55.802Z,62.46
2024-03-23T12:37:27.090Z,62.72
2024-03-23T12:40:00.385Z,63.62
2024-03-23T12:42:35.129Z,64.18
2024-03-23T12:45:07.435Z,65.00
2024-03-23T12:47:38.625Z,64.77
2024-03-23T12:50:13.835Z,64.24
2024-03-23T12:52:46.558Z,64.54
2024-03-23T12:55:21.865Z,64.14
2024-03-23T12:57:53.499Z,62.92
2024-03-23T13:00:26.327Z,63.26
2024-03-23T13:03:01.320Z,63.79
2024-03-23T13:05:32.630Z,62.81
2024-03-23T13:08:04.308Z,62.66
2024-03-23T13:10:35.629Z,63.52
2024-03-23T13:13:08.858Z,62.91
2024-03-23T13:15:40.185Z,63.56
2024-03-23T13:18:11.446Z,62.96
2024-03-23T13:20:43.343Z,60.96
2024-03-23T13:23:16.138Z,61.19
2024-03-23T13:25:54.880Z,60.62
2024-03-23T13:28:26.462Z,61.07
2024-03-23T13:30:59.146Z,61.35
2024-03-23T13:33:30.397Z,61.21
2024-03-23T13:36:03.059Z,60.57
2024-03-23T13:38:34.987Z,61.28
2024-03-23T13:41:08.081Z,60.13
2024-03-23T13:43:41.624Z,61.22
2024-03-23T13:46:13.263Z,61.81
2024-03-23T13:48:44.522Z,61.56
2024-03-23T13:51:15.916Z,60.95
2024-03-23T13:53:47.136Z,61.57
2024-03-23T13:56:18.611Z,61.42
2024-03-23T13:58:50.867Z,62.32
2024-03-23T14:01:22.223Z,62.70
2024-03-23T14:03:53.482Z,62.25
2024-03-23T14:06:24.859Z,61.97
2024-03-23T14:08:55.944Z,61.40
2024-03-23T14:11:29.799Z,60.51
2024-03-23T14:14:01.060Z,60.89
2024-03-23T14:16:32.349Z,60.18
2024-03-23T14:19:06.451Z,60.24
2024-03-23T14:21:37.617Z,59.71
2024-03-23T14:24:10.384Z,59.24
2024-03-23T14:26:42.680Z,59.65
2024-03-23T14:29:14.314Z,59.79
2024-03-23T14:31:48.590Z,59.28
2024-03-23T14:34:19.826Z,59.46
2024-03-23T14:36:51.260Z,59.28
2024-03-23T14:39:25.952Z,59.12
2024-03-23T14:41:57.720Z,59.71
2024-03-23T14:44:28.950Z,60.13
2024-03-23T14:47:00.846Z,60.79
2024-03-23T14:49:32.074Z,60.75
2024-03-23T14:52:03.841Z,60.69
2024-03-23T14:54:36.313Z,60.03
2024-03-23T14:57:08.531Z,60.34
2024-03-23T14:59:42.900Z,60.66
2024-03-23T15:02:15.983Z,60.15
2024-03-23T15:04:47.160Z,61.08
2024-03-23T15:07:18.789Z,60.91
2024-03-23T15:09:50.084Z,61.49
2024-03-23T15:12:22.176Z,61.46
2024-03-23T15:14:53.582Z,61.24
2024-03-23T15:17:24.685Z,61.85
2024-03-23T15:19:55.923Z,61.88
2024-03-23T15:22:27.447Z,61.93
2024-03-23T15:24:58.656Z,62.06
2024-03-23T15:27:29.982Z,62.44
2024-03-23T15:30:01.856Z,62.04
2024-03-23T15:32:33.143Z,62.14
2024-03-23T15:35:08.259Z,62.36
2024-03-23T15:37:40.200Z,62.16
2024-03-23T15:40:14.506Z,62.12
2024-03-23T15:42:45.812Z,62.37
2024-03-23T15:45:17.088Z,62.38
2024-03-23T15:47:48.332Z,62.46
2024-03-23T15:50:19.595Z,62.34
2024-03-23T15:52:51.653Z,62.35
2024-03-23T15:55:22.835Z,62.05
2024-03-23T15:57:53.878Z,62.15
2024-03-23T16:00:25.077Z,62.29
2024-03-23T16:02:56.867Z,61.49
2024-03-23T16:05:29.116Z,62.01
2024-03-23T16:08:00.320Z,62.52
2024-03-23T16:10:31.438Z,62.38
2024-03-23T16:13:02.582Z,63.48
2024-03-23T16:15:33.901Z,63.27
2024-03-23T16:18:05.411Z,63.48
2024-03-23T16:20:37.725Z,63.32
2024-03-23T16:23:08.993Z,63.64
2024-03-23T16:25:51.075Z,63.61
2024-03-23T16:28:22.250Z,64.48
2024-03-23T16:30:58.891Z,65.88
2024-03-23T16:33:32.046Z,66.44
2024-03-23T16:36:05.887Z,66.30
2024-03-23T16:38:38.762Z,66.80
2024-03-23T16:41:14.295Z,67.32
2024-03-23T16:43:46.305Z,68.14
2024-03-23T16:46:18.402Z,68.44
2024-03-23T16:48:48.170Z,68.74
2024-03-23T16:51:19.357Z,69.41
2024-03-23T16:53:50.640Z,69.23
2024-03-23T16:56:22.037Z,69.63
2024-03-23T16:58:53.409Z,70.20
2024-03-23T17:01:25.461Z,69.93
2024-03-23T17:03:55.229Z,69.78
2024-03-23T17:06:27.119Z,70.40
2024-03-23T17:09:00.093Z,70.38
2024-03-23T17:11:31.353Z,70.64
2024-03-23T17:14:03.215Z,71.10
2024-03-23T17:16:34.350Z,71.39
2024-03-23T17:19:05.665Z,71.67
2024-03-23T17:21:41.205Z,71.79
2024-03-23T17:24:12.680Z,72.12
2024-03-23T17:26:43.874Z,72.32
2024-03-23T17:29:15.988Z,72.57
2024-03-23T17:31:45.779Z,72.85
2024-03-23T17:34:16.990Z,73.36
2024-03-23T17:36:48.908Z,73.65
2024-03-23T17:39:20.099Z,73.68
2024-03-23T17:41:51.246Z,73.65
2024-03-23T17:44:22.552Z,74.12
2024-03-23T17:46:53.703Z,74.13
2024-03-23T17:49:36.567Z,74.35
2024-03-23T18:01:26.568Z,75.21
2024-03-23T18:04:28.353Z,75.41
2024-03-23T18:11:56.827Z,75.84
2024-03-23T18:16:00.089Z,76.16
2024-03-23T18:23:06.451Z,76.48
2024-03-23T18:26:20.700Z,76.65
2024-03-23T18:48:45.501Z,77.63
2024-03-23T18:59:24.531Z,78.08
2024-03-23T19:01:58.941Z,78.03
2024-03-23T19:04:30.040Z,78.24
2024-03-23T19:07:01.342Z,78.30
2024-03-23T19:09:35.095Z,78.27
2024-03-23T19:12:09.934Z,78.42
2024-03-23T19:14:41.439Z,78.34
2024-03-23T19:17:12.513Z,78.48
2024-03-23T19:19:43.670Z,78.47
2024-03-23T19:22:14.742Z,78.53
2024-03-23T19:24:46.191Z,78.54
2024-03-23T19:27:19.721Z,78.74
2024-03-23T19:29:51.851Z,78.95
2024-03-23T19:32:23.019Z,78.80
2024-03-23T19:34:54.170Z,79.05
2024-03-23T19:37:25.299Z,78.95
2024-03-23T19:39:57.621Z,79.04
2024-03-23T19:42:30.569Z,79.28
2024-03-23T19:45:01.679Z,79.30
2024-03-23T19:47:32.812Z,79.49
2024-03-23T19:50:04.227Z,79.52
2024-03-23T19:52:35.445Z,79.44
2024-03-23T19:55:08.006Z,79.63
2024-03-23T19:57:39.153Z,79.72
2024-03-23T20:00:12.013Z,79.90
2024-03-23T20:02:49.854Z,80.14
2024-03-23T20:05:21.180Z,80.15
2024-03-23T20:07:52.245Z,80.11
2024-03-23T20:10:23.414Z,80.19
2024-03-23T20:12:54.493Z,80.17
2024-03-23T20:15:26.088Z,80.27
2024-03-23T20:17:57.167Z,80.34
2024-03-23T20:20:28.612Z,80.36
2024-03-23T20:22:59.825Z,80.39
2024-03-23T20:25:30.920Z,80.42
2024-03-23T20:28:02.084Z,80.48
2024-03-23T20:30:33.226Z,80.62
2024-03-23T20:33:05.275Z,80.59
2024-03-23T20:35:36.313Z,80.45
2024-03-23T20:38:08.111Z,80.59
2024-03-23T20:40:39.203Z,80.62
2024-03-23T20:43:12.191Z,80.61
2024-03-23T20:45:43.938Z,80.70
2024-03-23T20:48:15.191Z,80.96
2024-03-23T20:50:46.402Z,80.75
2024-03-23T20:53:17.551Z,80.93
2024-03-23T20:55:55.851Z,81.06
2024-03-23T20:58:28.535Z,80.99
2024-03-23T21:01:01.732Z,81.04
2024-03-23T21:03:35.877Z,81.02
2024-03-23T21:06:09.135Z,81.26
2024-03-23T21:08:40.869Z,81.27
2024-03-23T21:11:12.242Z,81.06
2024-03-23T21:13:43.520Z,81.19
2024-03-23T21:16:14.756Z,80.97
2024-03-23T21:18:46.279Z,80.99
2024-03-23T21:21:20.125Z,80.85
2024-03-23T21:23:54.492Z,81.19
2024-03-23T21:26:25.875Z,80.95
2024-03-23T21:28:57.178Z,80.79
2024-03-23T21:31:28.454Z,80.94
2024-03-23T21:34:00.026Z,81.09
2024-03-23T21:36:33.352Z,81.15
2024-03-23T21:39:08.023Z,81.24
2024-03-23T21:41:39.278Z,81.20
2024-03-23T21:44:10.747Z,81.15
2024-03-23T21:46:42.045Z,81.11
2024-03-23T21:49:13.328Z,81.28
2024-03-23T21:51:44.477Z,81.29
2024-03-23T21:54:15.711Z,81.30
2024-03-23T21:56:47.101Z,81.22
2024-03-23T21:59:22.449Z,81.30
2024-03-23T22:01:56.273Z,81.29
2024-03-23T22:04:30.357Z,81.40
2024-03-23T22:07:04.999Z,81.41
2024-03-23T22:09:36.327Z,81.37
2024-03-23T22:12:09.423Z,81.49
2024-03-23T22:14:40.524Z,81.54
2024-03-23T22:17:11.628Z,81.55
2024-03-23T22:19:42.821Z,81.44
2024-03-23T22:22:13.909Z,81.67
2024-03-23T22:24:45.020Z,81.68
2024-03-23T22:27:16.241Z,81.79
2024-03-23T22:29:49.097Z,81.80
2024-03-23T22:32:20.183Z,81.77
2024-03-23T22:34:51.350Z,81.91
2024-03-23T22:37:22.561Z,81.92
2024-03-23T22:39:53.922Z,81.64
2024-03-23T22:42:25.189Z,82.01
2024-03-23T22:44:56.430Z,81.91
2024-03-23T22:47:27.605Z,81.87
2024-03-23T22:49:58.791Z,82.00
2024-03-23T22:52:29.960Z,81.96
2024-03-23T22:55:01.111Z,82.00
2024-03-23T22:57:32.349Z,82.10
2024-03-23T23:00:09.192Z,81.94
2024-03-23T23:02:40.465Z,81.91
2024-03-23T23:05:11.807Z,82.06
2024-03-23T23:07:42.969Z,81.95
2024-03-23T23:10:14.296Z,81.81
2024-03-23T23:12:45.454Z,81.89
2024-03-23T23:15:16.682Z,81.84
2024-03-23T23:17:48.303Z,81.79
2024-03-23T23:20:19.775Z,81.61
2024-03-23T23:22:50.912Z,81.73
2024-03-23T23:25:22.308Z,81.74
2024-03-23T23:27:53.533Z,82.86
2024-03-23T23:30:25.882Z,82.36
2024-03-23T23:32:58.502Z,82.26
2024-03-23T23:35:29.684Z,81.91
2024-03-23T23:38:00.862Z,82.00
2024-03-23T23:40:34.142Z,81.47
2024-03-23T23:43:05.367Z,81.33
2024-03-23T23:45:36.558Z,80.95
2024-03-23T23:48:08.864Z,80.94
2024-03-23T23:50:41.447Z,80.98
2024-03-23T23:53:12.579Z,81.15
2024-03-23T23:55:44.147Z,81.35
2024-03-23T23:58:15.534Z,81.14
